sensor_id;sensor_type;location;lat;lon;timestamp;P1;durP1;ratioP1;P2;durP2;ratioP2
71715;SDS011;59568;52.128;5.434;2023-08-01T00:01:05;3.25;;;1.10;;
71715;SDS011;59568;52.128;5.434;2023-08-01T00:03:33;2.55;;;0.85;;
71715;SDS011;59568;52.128;5.434;2023-08-01T00:06:05;8.17;;;1.20;;
71715;SDS011;59568;52.128;5.434;2023-08-01T00:08:36;9.27;;;1.30;;
71715;SDS011;59568;52.128;5.434;2023-08-01T00:11:04;3.85;;;1.27;;
71715;SDS011;59568;52.128;5.434;2023-08-01T00:13:30;4.78;;;1.27;;
71715;SDS011;59568;52.128;5.434;2023-08-01T00:15:58;2.97;;;1.25;;
71715;SDS011;59568;52.128;5.434;2023-08-01T00:18:27;3.30;;;1.10;;
71715;SDS011;59568;52.128;5.434;2023-08-01T00:20:54;5.88;;;1.27;;
71715;SDS011;59568;52.128;5.434;2023-08-01T00:23:21;10.50;;;1.30;;
71715;SDS011;59568;52.128;5.434;2023-08-01T00:25:48;4.35;;;1.20;;
71715;SDS011;59568;52.128;5.434;2023-08-01T00:28:21;5.70;;;1.30;;
71715;SDS011;59568;52.128;5.434;2023-08-01T00:30:50;5.33;;;1.17;;
71715;SDS011;59568;52.128;5.434;2023-08-01T00:33:17;4.70;;;1.35;;
71715;SDS011;59568;52.128;5.434;2023-08-01T00:35:58;4.65;;;0.85;;
71715;SDS011;59568;52.128;5.434;2023-08-01T00:38:24;6.78;;;1.40;;
71715;SDS011;59568;52.128;5.434;2023-08-01T00:40:51;4.97;;;1.30;;
71715;SDS011;59568;52.128;5.434;2023-08-01T00:43:19;3.00;;;0.90;;
71715;SDS011;59568;52.128;5.434;2023-08-01T00:45:46;4.82;;;1.00;;
71715;SDS011;59568;52.128;5.434;2023-08-01T00:48:13;3.47;;;1.05;;
71715;SDS011;59568;52.128;5.434;2023-08-01T00:50:40;3.63;;;1.30;;
71715;SDS011;59568;52.128;5.434;2023-08-01T00:53:07;3.45;;;1.48;;
71715;SDS011;59568;52.128;5.434;2023-08-01T00:55:34;4.93;;;1.33;;
71715;SDS011;59568;52.128;5.434;2023-08-01T00:58:03;4.63;;;1.95;;
71715;SDS011;59568;52.128;5.434;2023-08-01T01:00:35;4.13;;;1.60;;
71715;SDS011;59568;52.128;5.434;2023-08-01T01:03:16;5.50;;;1.33;;
71715;SDS011;59568;52.128;5.434;2023-08-01T01:08:29;2.30;;;0.90;;
71715;SDS011;59568;52.128;5.434;2023-08-01T01:10:56;4.20;;;1.23;;
71715;SDS011;59568;52.128;5.434;2023-08-01T01:13:23;4.97;;;1.42;;
71715;SDS011;59568;52.128;5.434;2023-08-01T01:15:51;5.70;;;1.15;;
71715;SDS011;59568;52.128;5.434;2023-08-01T01:18:18;3.58;;;1.08;;
71715;SDS011;59568;52.128;5.434;2023-08-01T01:20:45;4.10;;;1.70;;
71715;SDS011;59568;52.128;5.434;2023-08-01T01:23:12;4.63;;;1.20;;
71715;SDS011;59568;52.128;5.434;2023-08-01T01:25:42;4.68;;;1.70;;
71715;SDS011;59568;52.128;5.434;2023-08-01T01:28:10;8.07;;;1.50;;
71715;SDS011;59568;52.128;5.434;2023-08-01T01:30:51;5.10;;;1.23;;
71715;SDS011;59568;52.128;5.434;2023-08-01T01:33:20;7.53;;;1.47;;
71715;SDS011;59568;52.128;5.434;2023-08-01T01:35:48;3.95;;;1.75;;
71715;SDS011;59568;52.128;5.434;2023-08-01T01:38:16;8.02;;;2.10;;
71715;SDS011;59568;52.128;5.434;2023-08-01T01:40:44;7.43;;;1.52;;
71715;SDS011;59568;52.128;5.434;2023-08-01T01:43:11;3.95;;;1.23;;
71715;SDS011;59568;52.128;5.434;2023-08-01T01:45:38;4.23;;;1.70;;
71715;SDS011;59568;52.128;5.434;2023-08-01T01:48:05;7.32;;;1.60;;
71715;SDS011;59568;52.128;5.434;2023-08-01T01:50:32;5.57;;;1.92;;
71715;SDS011;59568;52.128;5.434;2023-08-01T01:52:59;5.82;;;1.88;;
71715;SDS011;59568;52.128;5.434;2023-08-01T01:55:26;8.63;;;2.30;;
71715;SDS011;59568;52.128;5.434;2023-08-01T01:57:53;8.80;;;1.83;;
71715;SDS011;59568;52.128;5.434;2023-08-01T02:00:21;5.05;;;1.73;;
71715;SDS011;59568;52.128;5.434;2023-08-01T02:02:48;8.75;;;2.25;;
71715;SDS011;59568;52.128;5.434;2023-08-01T02:05:14;5.80;;;1.77;;
71715;SDS011;59568;52.128;5.434;2023-08-01T02:07:42;8.15;;;2.20;;
71715;SDS011;59568;52.128;5.434;2023-08-01T02:10:09;6.33;;;1.90;;
71715;SDS011;59568;52.128;5.434;2023-08-01T02:12:36;8.75;;;2.20;;
71715;SDS011;59568;52.128;5.434;2023-08-01T02:15:03;8.07;;;1.75;;
71715;SDS011;59568;52.128;5.434;2023-08-01T02:17:30;3.50;;;1.80;;
71715;SDS011;59568;52.128;5.434;2023-08-01T02:19:57;6.43;;;1.90;;
71715;SDS011;59568;52.128;5.434;2023-08-01T02:22:24;10.00;;;2.43;;
71715;SDS011;59568;52.128;5.434;2023-08-01T02:24:52;6.25;;;1.92;;
71715;SDS011;59568;52.128;5.434;2023-08-01T02:27:19;5.93;;;2.30;;
71715;SDS011;59568;52.128;5.434;2023-08-01T02:29:46;8.30;;;2.67;;
71715;SDS011;59568;52.128;5.434;2023-08-01T02:32:12;6.93;;;2.08;;
71715;SDS011;59568;52.128;5.434;2023-08-01T02:34:39;8.63;;;1.93;;
71715;SDS011;59568;52.128;5.434;2023-08-01T02:37:06;9.15;;;2.10;;
71715;SDS011;59568;52.128;5.434;2023-08-01T02:39:33;6.97;;;1.98;;
71715;SDS011;59568;52.128;5.434;2023-08-01T02:41:59;8.52;;;2.25;;
71715;SDS011;59568;52.128;5.434;2023-08-01T02:44:26;6.93;;;2.38;;
71715;SDS011;59568;52.128;5.434;2023-08-01T02:46:54;7.17;;;2.33;;
71715;SDS011;59568;52.128;5.434;2023-08-01T02:49:21;9.13;;;2.30;;
71715;SDS011;59568;52.128;5.434;2023-08-01T02:51:47;6.72;;;2.50;;
71715;SDS011;59568;52.128;5.434;2023-08-01T02:54:14;8.30;;;1.88;;
71715;SDS011;59568;52.128;5.434;2023-08-01T02:56:40;15.05;;;2.15;;
71715;SDS011;59568;52.128;5.434;2023-08-01T02:59:08;7.43;;;2.07;;
71715;SDS011;59568;52.128;5.434;2023-08-01T03:01:38;6.68;;;2.20;;
71715;SDS011;59568;52.128;5.434;2023-08-01T03:04:06;7.53;;;1.80;;
71715;SDS011;59568;52.128;5.434;2023-08-01T03:06:33;7.10;;;1.85;;
71715;SDS011;59568;52.128;5.434;2023-08-01T03:09:00;5.78;;;1.80;;
71715;SDS011;59568;52.128;5.434;2023-08-01T03:11:27;10.10;;;2.00;;
71715;SDS011;59568;52.128;5.434;2023-08-01T03:13:54;8.43;;;1.70;;
71715;SDS011;59568;52.128;5.434;2023-08-01T03:16:21;9.18;;;2.42;;
71715;SDS011;59568;52.128;5.434;2023-08-01T03:18:48;5.30;;;1.85;;
71715;SDS011;59568;52.128;5.434;2023-08-01T03:21:15;8.63;;;1.80;;
71715;SDS011;59568;52.128;5.434;2023-08-01T03:23:42;9.83;;;2.27;;
71715;SDS011;59568;52.128;5.434;2023-08-01T03:26:09;6.95;;;1.50;;
71715;SDS011;59568;52.128;5.434;2023-08-01T03:28:36;4.57;;;1.55;;
71715;SDS011;59568;52.128;5.434;2023-08-01T03:31:03;7.40;;;1.60;;
71715;SDS011;59568;52.128;5.434;2023-08-01T03:33:30;14.90;;;2.45;;
71715;SDS011;59568;52.128;5.434;2023-08-01T03:35:56;11.13;;;1.83;;
71715;SDS011;59568;52.128;5.434;2023-08-01T03:38:23;10.02;;;1.58;;
71715;SDS011;59568;52.128;5.434;2023-08-01T03:40:49;8.73;;;1.60;;
71715;SDS011;59568;52.128;5.434;2023-08-01T03:43:16;7.18;;;1.63;;
71715;SDS011;59568;52.128;5.434;2023-08-01T03:45:43;6.18;;;1.73;;
71715;SDS011;59568;52.128;5.434;2023-08-01T03:48:09;15.30;;;2.97;;
71715;SDS011;59568;52.128;5.434;2023-08-01T03:50:36;7.43;;;1.77;;
71715;SDS011;59568;52.128;5.434;2023-08-01T03:53:03;8.90;;;2.00;;
71715;SDS011;59568;52.128;5.434;2023-08-01T03:55:29;8.27;;;2.20;;
71715;SDS011;59568;52.128;5.434;2023-08-01T03:57:56;6.45;;;2.00;;
71715;SDS011;59568;52.128;5.434;2023-08-01T04:00:23;7.37;;;2.17;;
71715;SDS011;59568;52.128;5.434;2023-08-01T04:02:49;7.80;;;2.25;;
71715;SDS011;59568;52.128;5.434;2023-08-01T04:05:16;10.60;;;2.33;;
71715;SDS011;59568;52.128;5.434;2023-08-01T04:07:43;13.90;;;2.13;;
71715;SDS011;59568;52.128;5.434;2023-08-01T04:10:10;13.98;;;2.03;;
71715;SDS011;59568;52.128;5.434;2023-08-01T04:12:37;9.50;;;1.87;;
71715;SDS011;59568;52.128;5.434;2023-08-01T04:15:04;11.77;;;2.08;;
71715;SDS011;59568;52.128;5.434;2023-08-01T04:17:31;12.00;;;1.98;;
71715;SDS011;59568;52.128;5.434;2023-08-01T04:19:58;10.38;;;2.00;;
71715;SDS011;59568;52.128;5.434;2023-08-01T04:22:25;5.68;;;1.92;;
71715;SDS011;59568;52.128;5.434;2023-08-01T04:24:52;8.83;;;1.93;;
71715;SDS011;59568;52.128;5.434;2023-08-01T04:27:18;10.10;;;2.10;;
71715;SDS011;59568;52.128;5.434;2023-08-01T04:29:45;13.77;;;2.38;;
71715;SDS011;59568;52.128;5.434;2023-08-01T04:32:12;9.48;;;2.30;;
71715;SDS011;59568;52.128;5.434;2023-08-01T04:34:41;7.35;;;1.77;;
71715;SDS011;59568;52.128;5.434;2023-08-01T04:37:08;6.17;;;2.13;;
71715;SDS011;59568;52.128;5.434;2023-08-01T04:39:34;6.75;;;2.10;;
71715;SDS011;59568;52.128;5.434;2023-08-01T04:42:01;8.02;;;2.03;;
71715;SDS011;59568;52.128;5.434;2023-08-01T04:44:28;7.88;;;1.85;;
71715;SDS011;59568;52.128;5.434;2023-08-01T04:46:56;9.95;;;2.20;;
71715;SDS011;59568;52.128;5.434;2023-08-01T04:49:22;5.10;;;2.17;;
71715;SDS011;59568;52.128;5.434;2023-08-01T04:51:52;10.85;;;2.63;;
71715;SDS011;59568;52.128;5.434;2023-08-01T04:54:19;8.45;;;2.00;;
71715;SDS011;59568;52.128;5.434;2023-08-01T04:56:45;9.27;;;2.20;;
71715;SDS011;59568;52.128;5.434;2023-08-01T04:59:12;10.27;;;2.60;;
71715;SDS011;59568;52.128;5.434;2023-08-01T05:01:39;10.43;;;2.40;;
71715;SDS011;59568;52.128;5.434;2023-08-01T05:04:06;11.32;;;2.40;;
71715;SDS011;59568;52.128;5.434;2023-08-01T05:06:32;13.30;;;2.65;;
71715;SDS011;59568;52.128;5.434;2023-08-01T05:08:59;10.55;;;2.83;;
71715;SDS011;59568;52.128;5.434;2023-08-01T05:11:26;9.38;;;2.60;;
71715;SDS011;59568;52.128;5.434;2023-08-01T05:13:53;8.70;;;2.77;;
71715;SDS011;59568;52.128;5.434;2023-08-01T05:16:20;10.23;;;2.45;;
71715;SDS011;59568;52.128;5.434;2023-08-01T05:18:47;11.38;;;2.25;;
71715;SDS011;59568;52.128;5.434;2023-08-01T05:21:13;10.10;;;2.65;;
71715;SDS011;59568;52.128;5.434;2023-08-01T05:23:40;10.35;;;2.53;;
71715;SDS011;59568;52.128;5.434;2023-08-01T05:26:07;9.77;;;2.50;;
71715;SDS011;59568;52.128;5.434;2023-08-01T05:28:33;7.85;;;2.20;;
71715;SDS011;59568;52.128;5.434;2023-08-01T05:31:00;10.98;;;2.55;;
71715;SDS011;59568;52.128;5.434;2023-08-01T05:33:27;9.18;;;3.25;;
71715;SDS011;59568;52.128;5.434;2023-08-01T05:35:53;10.40;;;2.38;;
71715;SDS011;59568;52.128;5.434;2023-08-01T05:38:20;5.87;;;2.30;;
71715;SDS011;59568;52.128;5.434;2023-08-01T05:40:47;10.38;;;2.30;;
71715;SDS011;59568;52.128;5.434;2023-08-01T05:43:14;5.78;;;2.30;;
71715;SDS011;59568;52.128;5.434;2023-08-01T05:45:41;14.23;;;2.30;;
71715;SDS011;59568;52.128;5.434;2023-08-01T05:48:07;12.43;;;2.75;;
71715;SDS011;59568;52.128;5.434;2023-08-01T05:50:34;10.27;;;2.50;;
71715;SDS011;59568;52.128;5.434;2023-08-01T05:53:01;8.50;;;2.20;;
71715;SDS011;59568;52.128;5.434;2023-08-01T05:55:27;13.50;;;2.50;;
71715;SDS011;59568;52.128;5.434;2023-08-01T05:57:54;11.85;;;2.60;;
71715;SDS011;59568;52.128;5.434;2023-08-01T06:00:21;10.27;;;2.10;;
71715;SDS011;59568;52.128;5.434;2023-08-01T06:02:47;10.03;;;2.60;;
71715;SDS011;59568;52.128;5.434;2023-08-01T06:05:15;12.02;;;2.30;;
71715;SDS011;59568;52.128;5.434;2023-08-01T06:07:41;15.70;;;3.25;;
71715;SDS011;59568;52.128;5.434;2023-08-01T06:10:08;10.52;;;2.08;;
71715;SDS011;59568;52.128;5.434;2023-08-01T06:12:35;8.35;;;2.13;;
71715;SDS011;59568;52.128;5.434;2023-08-01T06:15:03;10.03;;;2.07;;
71715;SDS011;59568;52.128;5.434;2023-08-01T06:17:31;7.75;;;1.80;;
71715;SDS011;59568;52.128;5.434;2023-08-01T06:19:57;8.23;;;2.10;;
71715;SDS011;59568;52.128;5.434;2023-08-01T06:22:24;8.38;;;2.00;;
71715;SDS011;59568;52.128;5.434;2023-08-01T06:24:52;7.60;;;2.30;;
71715;SDS011;59568;52.128;5.434;2023-08-01T06:27:18;8.53;;;2.00;;
71715;SDS011;59568;52.128;5.434;2023-08-01T06:29:51;7.57;;;1.92;;
71715;SDS011;59568;52.128;5.434;2023-08-01T06:32:19;5.57;;;1.95;;
71715;SDS011;59568;52.128;5.434;2023-08-01T06:34:47;10.77;;;2.22;;
71715;SDS011;59568;52.128;5.434;2023-08-01T06:37:14;7.15;;;1.77;;
71715;SDS011;59568;52.128;5.434;2023-08-01T06:39:42;13.43;;;2.23;;
71715;SDS011;59568;52.128;5.434;2023-08-01T06:42:09;7.65;;;2.10;;
71715;SDS011;59568;52.128;5.434;2023-08-01T06:44:36;6.47;;;1.90;;
71715;SDS011;59568;52.128;5.434;2023-08-01T06:47:03;11.20;;;2.33;;
71715;SDS011;59568;52.128;5.434;2023-08-01T06:49:30;8.18;;;1.98;;
71715;SDS011;59568;52.128;5.434;2023-08-01T06:51:56;8.37;;;1.67;;
71715;SDS011;59568;52.128;5.434;2023-08-01T06:54:23;5.93;;;1.83;;
71715;SDS011;59568;52.128;5.434;2023-08-01T06:56:51;6.13;;;1.65;;
71715;SDS011;59568;52.128;5.434;2023-08-01T06:59:19;7.18;;;1.65;;
71715;SDS011;59568;52.128;5.434;2023-08-01T07:01:46;9.20;;;1.70;;
71715;SDS011;59568;52.128;5.434;2023-08-01T07:04:14;7.30;;;1.70;;
71715;SDS011;59568;52.128;5.434;2023-08-01T07:06:41;4.57;;;1.77;;
71715;SDS011;59568;52.128;5.434;2023-08-01T07:09:10;7.43;;;1.83;;
71715;SDS011;59568;52.128;5.434;2023-08-01T07:11:37;10.65;;;1.98;;
71715;SDS011;59568;52.128;5.434;2023-08-01T07:14:27;11.75;;;2.20;;
71715;SDS011;59568;52.128;5.434;2023-08-01T07:17:07;5.07;;;1.43;;
71715;SDS011;59568;52.128;5.434;2023-08-01T07:19:35;7.03;;;1.70;;
71715;SDS011;59568;52.128;5.434;2023-08-01T07:22:05;8.98;;;1.88;;
71715;SDS011;59568;52.128;5.434;2023-08-01T07:24:41;6.05;;;1.63;;
71715;SDS011;59568;52.128;5.434;2023-08-01T07:27:24;6.10;;;1.33;;
71715;SDS011;59568;52.128;5.434;2023-08-01T07:29:54;7.33;;;0.90;;
71715;SDS011;59568;52.128;5.434;2023-08-01T07:32:36;7.25;;;1.65;;
71715;SDS011;59568;52.128;5.434;2023-08-01T07:39:46;8.85;;;1.33;;
71715;SDS011;59568;52.128;5.434;2023-08-01T07:42:12;6.93;;;1.23;;
71715;SDS011;59568;52.128;5.434;2023-08-01T07:44:39;3.83;;;1.10;;
71715;SDS011;59568;52.128;5.434;2023-08-01T07:47:06;6.20;;;1.27;;
71715;SDS011;59568;52.128;5.434;2023-08-01T07:49:39;6.77;;;1.40;;
71715;SDS011;59568;52.128;5.434;2023-08-01T07:52:06;9.75;;;1.85;;
71715;SDS011;59568;52.128;5.434;2023-08-01T07:54:32;7.50;;;1.27;;
71715;SDS011;59568;52.128;5.434;2023-08-01T07:56:57;5.30;;;1.57;;
71715;SDS011;59568;52.128;5.434;2023-08-01T07:59:24;4.65;;;1.30;;
71715;SDS011;59568;52.128;5.434;2023-08-01T08:01:52;4.40;;;1.42;;
71715;SDS011;59568;52.128;5.434;2023-08-01T08:04:18;4.70;;;1.10;;
71715;SDS011;59568;52.128;5.434;2023-08-01T08:06:46;7.53;;;1.77;;
71715;SDS011;59568;52.128;5.434;2023-08-01T08:09:12;7.70;;;1.93;;
71715;SDS011;59568;52.128;5.434;2023-08-01T08:11:40;7.97;;;1.75;;
71715;SDS011;59568;52.128;5.434;2023-08-01T08:14:14;5.22;;;1.58;;
71715;SDS011;59568;52.128;5.434;2023-08-01T08:16:42;4.82;;;1.80;;
71715;SDS011;59568;52.128;5.434;2023-08-01T08:19:10;7.40;;;2.17;;
71715;SDS011;59568;52.128;5.434;2023-08-01T08:21:39;3.53;;;1.30;;
71715;SDS011;59568;52.128;5.434;2023-08-01T08:24:09;6.20;;;1.23;;
71715;SDS011;59568;52.128;5.434;2023-08-01T08:26:44;6.57;;;1.15;;
71715;SDS011;59568;52.128;5.434;2023-08-01T08:29:30;4.60;;;1.13;;
71715;SDS011;59568;52.128;5.434;2023-08-01T08:32:13;5.05;;;1.13;;
71715;SDS011;59568;52.128;5.434;2023-08-01T08:35:02;8.00;;;1.63;;
71715;SDS011;59568;52.128;5.434;2023-08-01T08:37:51;7.63;;;1.00;;
71715;SDS011;59568;52.128;5.434;2023-08-01T08:40:51;3.47;;;1.00;;
71715;SDS011;59568;52.128;5.434;2023-08-01T08:43:35;4.05;;;0.90;;
71715;SDS011;59568;52.128;5.434;2023-08-01T08:49:45;4.82;;;0.95;;
71715;SDS011;59568;52.128;5.434;2023-08-01T08:52:28;5.70;;;0.83;;
71715;SDS011;59568;52.128;5.434;2023-08-01T08:54:57;4.50;;;0.77;;
71715;SDS011;59568;52.128;5.434;2023-08-01T08:57:26;4.55;;;0.70;;
71715;SDS011;59568;52.128;5.434;2023-08-01T09:00:03;8.68;;;1.08;;
71715;SDS011;59568;52.128;5.434;2023-08-01T09:02:38;6.60;;;1.13;;
71715;SDS011;59568;52.128;5.434;2023-08-01T09:05:20;4.63;;;1.27;;
71715;SDS011;59568;52.128;5.434;2023-08-01T09:11:52;5.82;;;1.30;;
71715;SDS011;59568;52.128;5.434;2023-08-01T09:14:53;3.47;;;0.85;;
71715;SDS011;59568;52.128;5.434;2023-08-01T09:22:57;2.83;;;1.00;;
71715;SDS011;59568;52.128;5.434;2023-08-01T09:25:31;4.30;;;1.00;;
71715;SDS011;59568;52.128;5.434;2023-08-01T09:28:20;5.63;;;1.30;;
71715;SDS011;59568;52.128;5.434;2023-08-01T09:30:53;7.70;;;1.52;;
71715;SDS011;59568;52.128;5.434;2023-08-01T09:33:22;6.37;;;0.93;;
71715;SDS011;59568;52.128;5.434;2023-08-01T09:36:07;4.85;;;1.05;;
71715;SDS011;59568;52.128;5.434;2023-08-01T09:38:50;9.15;;;1.15;;
71715;SDS011;59568;52.128;5.434;2023-08-01T09:41:17;4.78;;;1.25;;
71715;SDS011;59568;52.128;5.434;2023-08-01T09:43:49;7.32;;;1.13;;
71715;SDS011;59568;52.128;5.434;2023-08-01T09:46:21;4.70;;;1.00;;
71715;SDS011;59568;52.128;5.434;2023-08-01T09:48:48;7.70;;;1.02;;
71715;SDS011;59568;52.128;5.434;2023-08-01T09:51:16;2.35;;;0.77;;
71715;SDS011;59568;52.128;5.434;2023-08-01T09:56:21;4.97;;;1.13;;
71715;SDS011;59568;52.128;5.434;2023-08-01T09:58:52;5.27;;;1.20;;
71715;SDS011;59568;52.128;5.434;2023-08-01T10:01:24;5.95;;;1.25;;
71715;SDS011;59568;52.128;5.434;2023-08-01T10:03:55;5.05;;;1.20;;
71715;SDS011;59568;52.128;5.434;2023-08-01T10:06:37;5.38;;;1.20;;
71715;SDS011;59568;52.128;5.434;2023-08-01T10:09:42;6.38;;;1.20;;
71715;SDS011;59568;52.128;5.434;2023-08-01T10:12:12;6.60;;;1.50;;
71715;SDS011;59568;52.128;5.434;2023-08-01T10:14:55;8.15;;;1.45;;
71715;SDS011;59568;52.128;5.434;2023-08-01T10:17:42;6.28;;;1.48;;
71715;SDS011;59568;52.128;5.434;2023-08-01T10:20:16;4.25;;;0.90;;
71715;SDS011;59568;52.128;5.434;2023-08-01T10:23:18;4.10;;;0.90;;
71715;SDS011;59568;52.128;5.434;2023-08-01T10:25:45;2.53;;;0.70;;
71715;SDS011;59568;52.128;5.434;2023-08-01T10:28:30;4.53;;;1.00;;
71715;SDS011;59568;52.128;5.434;2023-08-01T10:31:07;3.10;;;0.63;;
71715;SDS011;59568;52.128;5.434;2023-08-01T10:33:44;3.50;;;0.70;;
71715;SDS011;59568;52.128;5.434;2023-08-01T10:36:23;5.20;;;1.23;;
71715;SDS011;59568;52.128;5.434;2023-08-01T10:39:08;2.83;;;0.53;;
71715;SDS011;59568;52.128;5.434;2023-08-01T10:41:58;4.57;;;0.70;;
71715;SDS011;59568;52.128;5.434;2023-08-01T10:44:46;5.93;;;0.90;;
71715;SDS011;59568;52.128;5.434;2023-08-01T10:47:13;3.60;;;1.00;;
71715;SDS011;59568;52.128;5.434;2023-08-01T10:49:53;4.65;;;1.00;;
71715;SDS011;59568;52.128;5.434;2023-08-01T10:52:20;6.00;;;1.10;;
71715;SDS011;59568;52.128;5.434;2023-08-01T10:54:57;3.50;;;1.27;;
71715;SDS011;59568;52.128;5.434;2023-08-01T10:57:28;5.40;;;1.08;;
71715;SDS011;59568;52.128;5.434;2023-08-01T11:00:18;9.00;;;1.25;;
71715;SDS011;59568;52.128;5.434;2023-08-01T11:02:50;4.03;;;1.10;;
71715;SDS011;59568;52.128;5.434;2023-08-01T11:05:18;5.93;;;0.70;;
71715;SDS011;59568;52.128;5.434;2023-08-01T11:07:55;3.33;;;0.70;;
71715;SDS011;59568;52.128;5.434;2023-08-01T11:10:28;3.13;;;0.50;;
71715;SDS011;59568;52.128;5.434;2023-08-01T11:12:56;2.35;;;0.85;;
71715;SDS011;59568;52.128;5.434;2023-08-01T11:15:26;3.72;;;0.90;;
71715;SDS011;59568;52.128;5.434;2023-08-01T11:17:55;3.87;;;0.80;;
71715;SDS011;59568;52.128;5.434;2023-08-01T11:20:30;3.30;;;0.65;;
71715;SDS011;59568;52.128;5.434;2023-08-01T11:23:00;5.28;;;0.63;;
71715;SDS011;59568;52.128;5.434;2023-08-01T11:28:11;3.95;;;0.93;;
71715;SDS011;59568;52.128;5.434;2023-08-01T11:30:41;5.20;;;0.90;;
71715;SDS011;59568;52.128;5.434;2023-08-01T11:33:19;6.55;;;1.00;;
71715;SDS011;59568;52.128;5.434;2023-08-01T11:35:51;4.13;;;1.00;;
71715;SDS011;59568;52.128;5.434;2023-08-01T11:38:31;3.30;;;0.68;;
71715;SDS011;59568;52.128;5.434;2023-08-01T11:41:00;4.38;;;0.90;;
71715;SDS011;59568;52.128;5.434;2023-08-01T11:43:41;5.10;;;0.80;;
71715;SDS011;59568;52.128;5.434;2023-08-01T11:46:31;3.25;;;0.80;;
71715;SDS011;59568;52.128;5.434;2023-08-01T11:49:06;5.03;;;0.90;;
71715;SDS011;59568;52.128;5.434;2023-08-01T11:52:07;3.25;;;0.90;;
71715;SDS011;59568;52.128;5.434;2023-08-01T11:54:43;2.72;;;0.65;;
71715;SDS011;59568;52.128;5.434;2023-08-01T11:57:11;4.82;;;0.80;;
71715;SDS011;59568;52.128;5.434;2023-08-01T11:59:45;1.98;;;0.43;;
71715;SDS011;59568;52.128;5.434;2023-08-01T12:04:49;3.13;;;0.60;;
71715;SDS011;59568;52.128;5.434;2023-08-01T12:07:30;3.08;;;0.55;;
71715;SDS011;59568;52.128;5.434;2023-08-01T12:10:44;4.47;;;0.40;;
71715;SDS011;59568;52.128;5.434;2023-08-01T12:14:22;5.35;;;0.52;;
71715;SDS011;59568;52.128;5.434;2023-08-01T12:17:29;5.25;;;0.50;;
71715;SDS011;59568;52.128;5.434;2023-08-01T12:20:14;3.80;;;0.50;;
71715;SDS011;59568;52.128;5.434;2023-08-01T12:23:15;4.13;;;0.60;;
71715;SDS011;59568;52.128;5.434;2023-08-01T12:29:29;2.60;;;0.45;;
71715;SDS011;59568;52.128;5.434;2023-08-01T12:32:22;3.22;;;0.70;;
71715;SDS011;59568;52.128;5.434;2023-08-01T12:34:51;4.85;;;0.70;;
71715;SDS011;59568;52.128;5.434;2023-08-01T12:37:41;3.72;;;0.90;;
71715;SDS011;59568;52.128;5.434;2023-08-01T12:40:16;5.90;;;0.68;;
71715;SDS011;59568;52.128;5.434;2023-08-01T12:43:03;4.75;;;0.80;;
71715;SDS011;59568;52.128;5.434;2023-08-01T12:45:33;4.57;;;0.82;;
71715;SDS011;59568;52.128;5.434;2023-08-01T12:48:05;3.50;;;0.70;;
71715;SDS011;59568;52.128;5.434;2023-08-01T12:50:46;5.18;;;0.57;;
71715;SDS011;59568;52.128;5.434;2023-08-01T12:53:22;5.55;;;0.73;;
71715;SDS011;59568;52.128;5.434;2023-08-01T12:56:14;5.20;;;0.80;;
71715;SDS011;59568;52.128;5.434;2023-08-01T12:58:44;4.25;;;0.50;;
71715;SDS011;59568;52.128;5.434;2023-08-01T13:01:14;4.35;;;0.40;;
71715;SDS011;59568;52.128;5.434;2023-08-01T13:03:51;3.00;;;0.40;;
71715;SDS011;59568;52.128;5.434;2023-08-01T13:06:25;2.03;;;0.40;;
71715;SDS011;59568;52.128;5.434;2023-08-01T13:08:54;6.25;;;0.47;;
71715;SDS011;59568;52.128;5.434;2023-08-01T13:11:22;5.82;;;0.63;;
71715;SDS011;59568;52.128;5.434;2023-08-01T13:13:56;3.05;;;0.80;;
71715;SDS011;59568;52.128;5.434;2023-08-01T13:16:24;2.75;;;0.57;;
71715;SDS011;59568;52.128;5.434;2023-08-01T13:18:59;5.33;;;0.63;;
71715;SDS011;59568;52.128;5.434;2023-08-01T13:21:34;3.63;;;0.70;;
71715;SDS011;59568;52.128;5.434;2023-08-01T13:24:03;6.57;;;0.80;;
71715;SDS011;59568;52.128;5.434;2023-08-01T13:26:47;2.97;;;0.90;;
71715;SDS011;59568;52.128;5.434;2023-08-01T13:29:23;6.05;;;1.00;;
71715;SDS011;59568;52.128;5.434;2023-08-01T13:31:56;5.87;;;0.80;;
71715;SDS011;59568;52.128;5.434;2023-08-01T13:34:50;3.65;;;0.88;;
71715;SDS011;59568;52.128;5.434;2023-08-01T13:37:34;5.55;;;1.30;;
71715;SDS011;59568;52.128;5.434;2023-08-01T13:40:49;4.35;;;1.05;;
71715;SDS011;59568;52.128;5.434;2023-08-01T13:43:48;3.55;;;0.90;;
71715;SDS011;59568;52.128;5.434;2023-08-01T13:46:59;4.97;;;0.80;;
71715;SDS011;59568;52.128;5.434;2023-08-01T13:49:49;4.25;;;0.80;;
71715;SDS011;59568;52.128;5.434;2023-08-01T13:52:55;6.43;;;0.90;;
71715;SDS011;59568;52.128;5.434;2023-08-01T13:56:04;4.60;;;0.80;;
71715;SDS011;59568;52.128;5.434;2023-08-01T13:59:05;1.85;;;0.70;;
71715;SDS011;59568;52.128;5.434;2023-08-01T14:01:45;3.47;;;0.73;;
71715;SDS011;59568;52.128;5.434;2023-08-01T14:04:31;4.50;;;0.60;;
71715;SDS011;59568;52.128;5.434;2023-08-01T14:07:37;3.88;;;0.50;;
71715;SDS011;59568;52.128;5.434;2023-08-01T14:10:12;5.93;;;0.70;;
71715;SDS011;59568;52.128;5.434;2023-08-01T14:12:55;5.15;;;0.70;;
71715;SDS011;59568;52.128;5.434;2023-08-01T14:15:38;2.90;;;0.60;;
71715;SDS011;59568;52.128;5.434;2023-08-01T14:18:06;4.40;;;0.60;;
71715;SDS011;59568;52.128;5.434;2023-08-01T14:20:36;2.58;;;0.57;;
71715;SDS011;59568;52.128;5.434;2023-08-01T14:23:41;2.85;;;0.50;;
71715;SDS011;59568;52.128;5.434;2023-08-01T14:26:45;3.83;;;0.65;;
71715;SDS011;59568;52.128;5.434;2023-08-01T14:29:12;5.03;;;0.80;;
71715;SDS011;59568;52.128;5.434;2023-08-01T14:31:39;6.00;;;0.80;;
71715;SDS011;59568;52.128;5.434;2023-08-01T14:34:06;5.85;;;0.80;;
71715;SDS011;59568;52.128;5.434;2023-08-01T14:36:37;3.33;;;0.70;;
71715;SDS011;59568;52.128;5.434;2023-08-01T14:39:08;2.47;;;1.00;;
71715;SDS011;59568;52.128;5.434;2023-08-01T14:41:47;4.13;;;0.60;;
71715;SDS011;59568;52.128;5.434;2023-08-01T14:44:19;5.10;;;0.90;;
71715;SDS011;59568;52.128;5.434;2023-08-01T14:46:46;3.97;;;0.68;;
71715;SDS011;59568;52.128;5.434;2023-08-01T14:49:14;4.95;;;0.90;;
71715;SDS011;59568;52.128;5.434;2023-08-01T14:51:43;4.40;;;1.10;;
71715;SDS011;59568;52.128;5.434;2023-08-01T14:54:10;2.70;;;0.50;;
71715;SDS011;59568;52.128;5.434;2023-08-01T14:56:51;4.75;;;1.20;;
71715;SDS011;59568;52.128;5.434;2023-08-01T14:59:17;4.03;;;0.52;;
71715;SDS011;59568;52.128;5.434;2023-08-01T15:01:44;6.05;;;0.40;;
71715;SDS011;59568;52.128;5.434;2023-08-01T15:04:11;3.35;;;0.80;;
71715;SDS011;59568;52.128;5.434;2023-08-01T15:06:39;4.17;;;0.50;;
71715;SDS011;59568;52.128;5.434;2023-08-01T15:09:07;3.75;;;0.60;;
71715;SDS011;59568;52.128;5.434;2023-08-01T15:11:35;2.67;;;0.68;;
71715;SDS011;59568;52.128;5.434;2023-08-01T15:14:04;4.20;;;0.50;;
71715;SDS011;59568;52.128;5.434;2023-08-01T15:16:31;2.88;;;0.55;;
71715;SDS011;59568;52.128;5.434;2023-08-01T15:19:00;2.57;;;0.40;;
71715;SDS011;59568;52.128;5.434;2023-08-01T15:21:28;3.65;;;0.40;;
71715;SDS011;59568;52.128;5.434;2023-08-01T15:23:56;4.90;;;0.75;;
71715;SDS011;59568;52.128;5.434;2023-08-01T15:26:28;4.00;;;0.50;;
71715;SDS011;59568;52.128;5.434;2023-08-01T15:28:59;3.00;;;0.40;;
71715;SDS011;59568;52.128;5.434;2023-08-01T15:31:57;4.20;;;0.47;;
71715;SDS011;59568;52.128;5.434;2023-08-01T15:34:39;5.28;;;0.55;;
71715;SDS011;59568;52.128;5.434;2023-08-01T15:37:08;1.98;;;0.50;;
71715;SDS011;59568;52.128;5.434;2023-08-01T15:39:36;2.83;;;0.55;;
71715;SDS011;59568;52.128;5.434;2023-08-01T15:42:06;4.93;;;1.17;;
71715;SDS011;59568;52.128;5.434;2023-08-01T15:44:33;5.43;;;1.00;;
71715;SDS011;59568;52.128;5.434;2023-08-01T15:47:19;5.38;;;0.75;;
71715;SDS011;59568;52.128;5.434;2023-08-01T15:49:50;4.40;;;0.63;;